createdAt,value
2023-05-21T00:01:29.844Z,23.13
2023-05-21T00:04:18.592Z,23.73
2023-05-21T00:07:08.399Z,22.70
2023-05-21T00:09:57.148Z,22.70
2023-05-21T00:12:46.029Z,23.85
2023-05-21T00:15:36.556Z,22.80
2023-05-21T00:18:26.431Z,24.00
2023-05-21T00:21:17.276Z,23.75
2023-05-21T00:24:06.186Z,22.52
2023-05-21T00:26:54.902Z,25.88
2023-05-21T00:29:44.508Z,24.35
2023-05-21T00:32:34.805Z,24.20
2023-05-21T00:35:23.597Z,26.40
2023-05-21T00:38:12.402Z,24.17
2023-05-21T00:41:02.492Z,25.63
2023-05-21T00:43:52.899Z,26.80
2023-05-21T00:46:41.798Z,25.10
2023-05-21T00:49:32.418Z,25.83
2023-05-21T00:52:23.015Z,24.25
2023-05-21T00:55:12.017Z,28.30
2023-05-21T00:58:00.849Z,26.85
2023-05-21T01:00:49.614Z,26.45
2023-05-21T01:03:39.316Z,26.77
2023-05-21T01:06:29.545Z,26.10
2023-05-21T01:09:18.460Z,26.38
2023-05-21T01:12:07.822Z,25.73
2023-05-21T01:14:57.647Z,28.20
2023-05-21T01:17:46.569Z,29.00
2023-05-21T01:20:35.384Z,29.30
2023-05-21T01:23:25.580Z,27.23
2023-05-21T01:26:14.342Z,28.63
2023-05-21T01:29:03.158Z,27.05
2023-05-21T01:31:57.604Z,28.40
2023-05-21T01:34:47.765Z,30.67
2023-05-21T01:37:38.761Z,30.63
2023-05-21T01:40:31.851Z,28.48
2023-05-21T01:43:21.539Z,27.98
2023-05-21T01:46:12.382Z,29.52
2023-05-21T01:49:01.522Z,27.25
2023-05-21T01:51:50.445Z,27.23
2023-05-21T01:54:39.213Z,30.98
2023-05-21T01:57:29.402Z,28.88
2023-05-21T02:00:18.773Z,28.63
2023-05-21T02:03:08.045Z,30.05
2023-05-21T02:05:57.039Z,29.83
2023-05-21T02:08:46.613Z,29.02
2023-05-21T02:11:35.335Z,27.70
2023-05-21T02:14:26.432Z,28.15
2023-05-21T02:17:15.197Z,28.50
2023-05-21T02:20:11.469Z,27.25
2023-05-21T02:23:00.225Z,28.88
2023-05-21T02:25:48.964Z,28.55
2023-05-21T02:28:38.470Z,27.75
2023-05-21T02:31:28.636Z,28.25
2023-05-21T02:34:17.670Z,29.25
2023-05-21T02:37:06.680Z,27.67
2023-05-21T02:39:55.730Z,28.65
2023-05-21T02:42:44.559Z,30.13
2023-05-21T02:45:33.360Z,29.20
2023-05-21T02:48:23.575Z,28.77
2023-05-21T02:51:12.414Z,27.10
2023-05-21T02:54:01.147Z,28.05
2023-05-21T02:56:49.912Z,28.15
2023-05-21T02:59:38.719Z,29.52
2023-05-21T03:02:27.540Z,30.13
2023-05-21T03:05:17.793Z,29.67
2023-05-21T03:08:06.700Z,29.55
2023-05-21T03:10:55.877Z,28.65
2023-05-21T03:13:44.656Z,31.17
2023-05-21T03:16:34.776Z,32.40
2023-05-21T03:19:24.860Z,28.90
2023-05-21T03:22:15.043Z,28.25
2023-05-21T03:25:04.361Z,28.70
2023-05-21T03:27:53.627Z,29.50
2023-05-21T03:30:46.443Z,28.98
2023-05-21T03:33:35.521Z,29.63
2023-05-21T03:36:24.268Z,28.92
2023-05-21T03:39:14.638Z,30.88
2023-05-21T03:42:03.514Z,27.40
2023-05-21T03:44:52.280Z,28.20
2023-05-21T03:47:41.865Z,28.90
2023-05-21T03:50:31.099Z,28.63
2023-05-21T03:53:19.841Z,30.45
2023-05-21T03:56:10.058Z,28.98
2023-05-21T03:58:58.861Z,28.80
2023-05-21T04:01:47.612Z,28.83
2023-05-21T04:04:37.179Z,28.13
2023-05-21T04:07:27.302Z,30.55
2023-05-21T04:10:16.075Z,29.42
2023-05-21T04:13:06.519Z,30.15
2023-05-21T04:15:55.769Z,28.63
2023-05-21T04:18:45.687Z,28.67
2023-05-21T04:21:34.616Z,29.52
2023-05-21T04:24:23.426Z,30.42
2023-05-21T04:27:12.261Z,29.80
2023-05-21T04:30:04.318Z,29.85
2023-05-21T04:32:55.001Z,30.05
2023-05-21T04:35:44.633Z,30.23
2023-05-21T04:38:33.488Z,29.45
2023-05-21T04:41:22.253Z,28.95
2023-05-21T04:44:11.195Z,30.23
2023-05-21T04:47:02.235Z,29.63
2023-05-21T04:49:51.146Z,28.85
2023-05-21T04:52:41.444Z,35.73
2023-05-21T04:55:30.179Z,31.05
2023-05-21T04:58:19.327Z,30.85
2023-05-21T05:01:08.936Z,28.27
2023-05-21T05:03:59.166Z,30.50
2023-05-21T05:06:48.460Z,33.53
2023-05-21T05:09:37.361Z,29.98
2023-05-21T05:12:26.123Z,32.92
2023-05-21T05:15:14.896Z,29.40
2023-05-21T05:18:03.785Z,29.50
2023-05-21T05:20:53.892Z,28.48
2023-05-21T05:23:42.633Z,28.42
2023-05-21T05:26:31.392Z,29.48
2023-05-21T05:29:20.183Z,31.73
2023-05-21T05:32:09.913Z,30.20
2023-05-21T05:35:00.400Z,29.75
2023-05-21T05:37:51.722Z,31.02
2023-05-21T05:40:40.519Z,31.20
2023-05-21T05:43:29.241Z,29.95
2023-05-21T05:46:18.009Z,30.02
2023-05-21T05:49:06.742Z,30.75
2023-05-21T05:51:56.634Z,28.17
2023-05-21T05:54:47.103Z,31.92
2023-05-21T05:57:36.064Z,33.10
2023-05-21T06:00:24.883Z,31.27
2023-05-21T06:03:14.093Z,30.45
2023-05-21T06:06:02.929Z,28.98
2023-05-21T06:08:51.734Z,31.17
2023-05-21T06:11:41.851Z,31.63
2023-05-21T06:14:30.615Z,30.67
2023-05-21T06:17:19.340Z,33.38
2023-05-21T06:20:09.034Z,29.65
2023-05-21T06:22:57.844Z,30.83
2023-05-21T06:25:46.581Z,29.77
2023-05-21T06:28:36.949Z,28.98
2023-05-21T06:31:25.717Z,31.55
2023-05-21T06:34:14.518Z,28.83
2023-05-21T06:37:03.299Z,29.70
2023-05-21T06:39:52.083Z,28.58
2023-05-21T06:42:40.901Z,29.95
2023-05-21T06:45:31.125Z,26.60
2023-05-21T06:48:19.894Z,28.75
2023-05-21T06:51:08.606Z,27.55
2023-05-21T06:53:57.431Z,28.88
2023-05-21T06:56:46.221Z,29.70
2023-05-21T06:59:35.057Z,25.90
2023-05-21T07:02:25.212Z,26.55
2023-05-21T07:05:14.076Z,24.75
2023-05-21T07:08:02.944Z,27.02
2023-05-21T07:10:51.887Z,26.10
2023-05-21T07:13:40.586Z,24.33
2023-05-21T07:16:29.387Z,24.38
2023-05-21T07:19:19.397Z,23.40
2023-05-21T07:22:07.850Z,20.98
2023-05-21T07:24:56.367Z,21.27
2023-05-21T07:27:44.759Z,22.25
2023-05-21T07:30:33.277Z,21.10
2023-05-21T07:33:22.730Z,19.73
2023-05-21T07:36:12.563Z,19.60
2023-05-21T07:39:01.710Z,17.85
2023-05-21T07:41:50.245Z,18.98
2023-05-21T07:44:38.760Z,20.02
2023-05-21T07:47:27.400Z,19.35
2023-05-21T07:50:16.155Z,18.65
2023-05-21T07:53:06.014Z,18.73
2023-05-21T07:55:54.465Z,19.33
2023-05-21T07:58:45.663Z,17.95
2023-05-21T08:01:34.442Z,16.02
2023-05-21T08:04:23.139Z,17.30
2023-05-21T08:07:12.946Z,16.45
2023-05-21T08:10:03.198Z,17.02
2023-05-21T08:12:51.754Z,14.90
2023-05-21T08:15:40.413Z,15.70
2023-05-21T08:18:28.856Z,15.63
2023-05-21T08:21:17.707Z,15.70
2023-05-21T08:24:06.446Z,15.52
2023-05-21T08:26:56.454Z,15.25
2023-05-21T08:29:44.947Z,14.50
2023-05-21T08:32:33.466Z,13.73
2023-05-21T08:35:22.013Z,14.07
2023-05-21T08:38:10.586Z,13.75
2023-05-21T08:41:00.075Z,15.38
2023-05-21T08:43:55.773Z,13.02
2023-05-21T08:46:46.514Z,14.73
2023-05-21T08:49:36.248Z,12.00
2023-05-21T08:52:26.597Z,14.02
2023-05-21T08:55:15.488Z,12.98
2023-05-21T08:58:05.880Z,12.60
2023-05-21T09:00:56.133Z,12.85
2023-05-21T09:03:45.409Z,12.23
2023-05-21T09:06:34.082Z,11.40
2023-05-21T09:09:28.329Z,15.02
2023-05-21T09:12:16.832Z,13.75
2023-05-21T09:15:06.469Z,12.88
2023-05-21T09:17:57.598Z,13.73
2023-05-21T09:20:46.425Z,12.75
2023-05-21T09:23:34.950Z,13.15
2023-05-21T09:26:23.672Z,14.48
2023-05-21T09:29:14.407Z,13.07
2023-05-21T09:32:08.091Z,12.40
2023-05-21T09:34:57.908Z,13.55
2023-05-21T09:37:49.393Z,13.23
2023-05-21T09:40:38.279Z,13.48
2023-05-21T09:43:27.050Z,12.32
2023-05-21T09:46:15.588Z,10.43
2023-05-21T09:49:04.112Z,12.23
2023-05-21T09:51:56.486Z,12.57
2023-05-21T09:54:45.932Z,12.35
2023-05-21T09:57:34.434Z,11.85
2023-05-21T10:00:24.195Z,12.30
2023-05-21T10:03:15.034Z,11.70
2023-05-21T10:06:03.996Z,11.38
2023-05-21T10:08:57.074Z,12.63
2023-05-21T10:11:46.486Z,12.13
2023-05-21T10:14:35.933Z,11.50
2023-05-21T10:17:25.990Z,11.48
2023-05-21T10:20:14.565Z,11.50
2023-05-21T10:23:03.549Z,12.52
2023-05-21T10:25:55.026Z,13.65
2023-05-21T10:28:44.019Z,12.15
2023-05-21T10:31:33.706Z,10.85
2023-05-21T10:34:24.543Z,11.82
2023-05-21T10:37:14.436Z,10.45
2023-05-21T10:40:04.603Z,12.52
2023-05-21T10:43:17.545Z,11.80
2023-05-21T10:46:32.170Z,10.43
2023-05-21T10:49:36.348Z,10.20
2023-05-21T10:52:45.310Z,11.07
2023-05-21T10:55:44.198Z,10.30
2023-05-21T10:59:22.326Z,10.50
2023-05-21T11:02:15.699Z,10.20
2023-05-21T11:05:04.659Z,9.50
2023-05-21T11:07:57.341Z,10.70
2023-05-21T11:10:46.057Z,10.98
2023-05-21T11:13:48.849Z,10.57
2023-05-21T11:16:37.795Z,10.20
2023-05-21T11:19:36.271Z,10.65
2023-05-21T11:22:26.124Z,11.40
2023-05-21T11:25:15.545Z,10.77
2023-05-21T11:28:09.424Z,9.00
2023-05-21T11:31:25.806Z,9.60
2023-05-21T11:34:14.857Z,8.73
2023-05-21T11:37:27.852Z,9.68
2023-05-21T11:40:26.696Z,11.52
2023-05-21T11:43:15.259Z,12.95
2023-05-21T11:46:04.134Z,12.02
2023-05-21T11:48:54.959Z,9.50
2023-05-21T11:51:44.649Z,13.18
2023-05-21T11:54:39.367Z,10.18
2023-05-21T11:57:31.315Z,12.05
2023-05-21T12:00:19.783Z,9.73
2023-05-21T12:03:12.959Z,10.43
2023-05-21T12:06:06.655Z,9.82
2023-05-21T12:08:58.274Z,8.15
2023-05-21T12:11:48.492Z,11.02
2023-05-21T12:14:37.270Z,9.32
2023-05-21T12:17:28.161Z,9.65
2023-05-21T12:20:17.164Z,8.45
2023-05-21T12:23:05.805Z,8.38
2023-05-21T12:25:54.464Z,11.93
2023-05-21T12:28:44.351Z,11.50
2023-05-21T12:31:33.034Z,8.35
2023-05-21T12:34:41.592Z,8.77
2023-05-21T12:37:32.606Z,10.32
2023-05-21T12:40:22.205Z,9.52
2023-05-21T12:43:10.860Z,8.63
2023-05-21T12:46:01.158Z,8.45
2023-05-21T12:48:51.567Z,8.20
2023-05-21T12:51:40.767Z,6.90
2023-05-21T12:54:35.153Z,8.77
2023-05-21T12:57:24.860Z,8.93
2023-05-21T13:00:14.394Z,8.48
2023-05-21T13:03:06.570Z,8.77
2023-05-21T13:05:59.923Z,7.85
2023-05-21T13:08:48.351Z,7.80
2023-05-21T13:11:36.786Z,9.75
2023-05-21T13:14:25.272Z,10.20
2023-05-21T13:17:13.691Z,7.70
2023-05-21T13:20:12.433Z,8.55
2023-05-21T13:23:03.402Z,8.93
2023-05-21T13:25:53.400Z,9.18
2023-05-21T13:28:42.726Z,8.25
2023-05-21T13:31:31.370Z,8.48
2023-05-21T13:34:19.873Z,9.13
2023-05-21T13:37:09.856Z,10.27
2023-05-21T13:39:58.555Z,7.72
2023-05-21T13:42:48.803Z,8.20
2023-05-21T13:45:37.245Z,7.88
2023-05-21T13:48:25.672Z,7.53
2023-05-21T13:51:19.894Z,8.43
2023-05-21T13:54:15.779Z,8.35
2023-05-21T13:57:04.692Z,7.95
2023-05-21T13:59:53.204Z,7.07
2023-05-21T14:02:43.310Z,8.40
2023-05-21T14:05:31.933Z,6.90
2023-05-21T14:08:20.950Z,7.93
2023-05-21T14:11:10.791Z,8.10
2023-05-21T14:13:59.501Z,9.27
2023-05-21T14:16:48.217Z,8.48
2023-05-21T14:19:36.805Z,7.90
2023-05-21T14:22:25.524Z,7.47
2023-05-21T14:25:14.264Z,7.00
2023-05-21T14:28:04.366Z,7.28
2023-05-21T14:30:53.168Z,7.88
2023-05-21T14:33:41.952Z,7.18
2023-05-21T14:36:31.156Z,8.88
2023-05-21T14:39:19.993Z,7.30
2023-05-21T14:42:08.812Z,8.82
2023-05-21T14:44:59.074Z,7.75
2023-05-21T14:47:48.889Z,9.02
2023-05-21T14:50:37.865Z,7.85
2023-05-21T14:53:26.603Z,9.05
2023-05-21T14:56:15.583Z,8.68
2023-05-21T14:59:04.275Z,7.07
2023-05-21T15:01:54.525Z,8.07
2023-05-21T15:04:43.292Z,8.27
2023-05-21T15:07:32.024Z,7.38
2023-05-21T15:10:20.885Z,7.65
2023-05-21T15:13:09.660Z,7.10
2023-05-21T15:15:58.571Z,8.05
2023-05-21T15:18:50.141Z,8.30
2023-05-21T15:21:39.246Z,7.07
2023-05-21T15:24:28.020Z,7.43
2023-05-21T15:27:16.729Z,7.22
2023-05-21T15:30:05.822Z,6.35
2023-05-21T15:32:54.794Z,6.80
2023-05-21T15:35:45.226Z,6.20
2023-05-21T15:38:34.173Z,7.22
2023-05-21T15:41:23.130Z,6.30
2023-05-21T15:44:11.938Z,6.35
2023-05-21T15:47:00.978Z,6.07
2023-05-21T15:49:49.851Z,6.15
2023-05-21T15:52:40.150Z,6.13
2023-05-21T15:55:28.850Z,5.28
2023-05-21T15:58:17.966Z,6.07
2023-05-21T16:01:06.808Z,5.93
2023-05-21T16:03:55.695Z,5.57
2023-05-21T16:06:44.588Z,5.70
2023-05-21T16:09:35.435Z,5.53
2023-05-21T16:12:24.165Z,5.45
2023-05-21T16:15:13.013Z,5.07
2023-05-21T16:18:01.891Z,4.93
2023-05-21T16:20:50.720Z,5.10
2023-05-21T16:23:39.594Z,5.82
2023-05-21T16:26:29.797Z,4.50
2023-05-21T16:29:18.589Z,5.25
2023-05-21T16:32:07.480Z,4.60
2023-05-21T16:34:56.265Z,4.57
2023-05-21T16:37:44.973Z,4.68
2023-05-21T16:40:33.763Z,4.93
2023-05-21T16:43:23.871Z,4.80
2023-05-21T16:46:12.722Z,4.78
2023-05-21T16:49:01.459Z,4.35
2023-05-21T16:51:50.298Z,4.55
2023-05-21T16:54:39.023Z,4.30
2023-05-21T16:57:27.520Z,4.28
2023-05-21T17:00:18.168Z,4.93
2023-05-21T17:03:06.829Z,4.00
2023-05-21T17:05:55.387Z,4.97
2023-05-21T17:08:43.869Z,4.18
2023-05-21T17:11:32.583Z,4.18
2023-05-21T17:14:33.197Z,4.20
2023-05-21T17:17:24.798Z,4.22
2023-05-21T17:20:14.216Z,3.88
2023-05-21T17:23:03.061Z,4.28
2023-05-21T17:25:52.661Z,4.70
2023-05-21T17:28:41.666Z,4.32
2023-05-21T17:31:32.118Z,4.13
2023-05-21T17:34:26.330Z,4.20
2023-05-21T17:37:14.992Z,4.97
2023-05-21T17:40:04.369Z,4.43
2023-05-21T17:42:53.105Z,4.70
2023-05-21T17:45:41.555Z,4.63
2023-05-21T17:48:30.099Z,4.95
2023-05-21T17:51:20.054Z,4.38
2023-05-21T17:54:09.019Z,5.15
2023-05-21T17:56:57.714Z,4.53
2023-05-21T17:59:46.171Z,4.35
2023-05-21T18:02:34.643Z,4.97
2023-05-21T18:05:23.589Z,4.70
2023-05-21T18:08:13.404Z,4.65
2023-05-21T18:11:02.173Z,4.65
2023-05-21T18:13:50.684Z,4.78
2023-05-21T18:16:39.239Z,4.40
2023-05-21T18:19:27.821Z,5.10
2023-05-21T18:22:16.347Z,4.88
2023-05-21T18:25:07.038Z,5.35
2023-05-21T18:27:55.630Z,4.75
2023-05-21T18:30:44.127Z,4.82
2023-05-21T18:33:32.616Z,5.15
2023-05-21T18:36:21.057Z,5.35
2023-05-21T18:39:10.593Z,4.50
2023-05-21T18:42:12.193Z,4.85
2023-05-21T18:45:07.920Z,5.30
2023-05-21T18:47:56.450Z,5.22
2023-05-21T18:50:44.968Z,4.68
2023-05-21T18:53:33.452Z,5.90
2023-05-21T18:56:22.526Z,5.28
2023-05-21T18:59:12.350Z,5.60
2023-05-21T19:02:00.782Z,5.80
2023-05-21T19:04:49.827Z,5.38
2023-05-21T19:07:38.315Z,5.80
2023-05-21T19:10:26.834Z,5.85
2023-05-21T19:13:15.478Z,5.90
2023-05-21T19:16:10.868Z,5.93
2023-05-21T19:18:59.567Z,5.85
2023-05-21T19:21:48.055Z,5.60
2023-05-21T19:24:36.554Z,6.45
2023-05-21T19:27:25.042Z,7.80
2023-05-21T19:30:14.100Z,7.65
2023-05-21T19:33:04.307Z,7.78
2023-05-21T19:35:52.884Z,7.68
2023-05-21T19:38:48.126Z,7.55
2023-05-21T19:41:36.577Z,8.50
2023-05-21T19:44:25.079Z,9.57
2023-05-21T19:47:13.838Z,10.00
2023-05-21T19:50:03.979Z,9.63
2023-05-21T19:52:53.485Z,9.65
2023-05-21T19:55:41.998Z,9.73
2023-05-21T19:58:30.855Z,10.45
2023-05-21T20:01:19.398Z,9.68
2023-05-21T20:04:07.970Z,10.95
2023-05-21T20:06:57.844Z,10.93
2023-05-21T20:09:46.631Z,10.75
2023-05-21T20:12:35.621Z,11.15
2023-05-21T20:15:24.159Z,11.15
2023-05-21T20:18:13.254Z,11.38
2023-05-21T20:21:02.597Z,14.40
2023-05-21T20:23:52.583Z,13.27
2023-05-21T20:26:41.071Z,13.45
2023-05-21T20:29:29.953Z,14.73
2023-05-21T20:32:18.538Z,12.48
2023-05-21T20:35:09.968Z,12.60
2023-05-21T20:37:58.606Z,11.52
2023-05-21T20:40:49.020Z,12.73
2023-05-21T20:43:37.757Z,12.73
2023-05-21T20:46:28.067Z,13.48
2023-05-21T20:49:17.690Z,13.45
2023-05-21T20:52:06.567Z,15.02
2023-05-21T20:54:55.711Z,13.45
2023-05-21T20:57:46.122Z,13.40
2023-05-21T21:00:34.873Z,15.02
2023-05-21T21:03:24.499Z,12.50
2023-05-21T21:06:13.610Z,13.55
2023-05-21T21:09:02.381Z,12.70
2023-05-21T21:11:51.167Z,14.20
2023-05-21T21:14:41.325Z,15.05
2023-05-21T21:17:30.236Z,14.73
2023-05-21T21:20:19.470Z,14.07
2023-05-21T21:23:08.226Z,13.32
2023-05-21T21:25:56.995Z,12.60
2023-05-21T21:28:46.623Z,14.35
2023-05-21T21:31:36.979Z,12.80
2023-05-21T21:34:25.659Z,14.43
2023-05-21T21:37:14.433Z,12.82
2023-05-21T21:40:03.356Z,12.80
2023-05-21T21:42:52.197Z,11.93
2023-05-21T21:45:41.057Z,13.30
2023-05-21T21:48:31.187Z,13.18
2023-05-21T21:51:23.139Z,12.77
2023-05-21T21:54:12.354Z,12.80
2023-05-21T21:57:01.142Z,13.50
2023-05-21T21:59:49.906Z,11.82
2023-05-21T22:02:40.251Z,10.98
2023-05-21T22:05:32.659Z,12.82
2023-05-21T22:08:21.420Z,12.10
2023-05-21T22:11:10.368Z,11.00
2023-05-21T22:14:00.321Z,10.93
2023-05-21T22:16:49.114Z,10.95
2023-05-21T22:19:39.253Z,10.85
2023-05-21T22:22:29.408Z,13.73
2023-05-21T22:25:18.171Z,11.73
2023-05-21T22:28:07.221Z,11.88
2023-05-21T22:30:56.110Z,12.50
2023-05-21T22:33:45.133Z,11.38
2023-05-21T22:36:33.925Z,11.57
2023-05-21T22:39:24.073Z,11.65
2023-05-21T22:42:13.037Z,12.23
2023-05-21T22:45:01.999Z,11.32
2023-05-21T22:47:51.917Z,12.02
2023-05-21T22:50:41.017Z,10.45
2023-05-21T22:53:29.955Z,11.15
2023-05-21T22:56:20.024Z,11.10
2023-05-21T22:59:08.766Z,12.27
2023-05-21T23:01:57.712Z,12.27
2023-05-21T23:04:47.734Z,13.40
2023-05-21T23:07:37.751Z,12.65
2023-05-21T23:10:26.536Z,13.48
2023-05-21T23:13:16.587Z,12.32
2023-05-21T23:16:05.962Z,11.75
2023-05-21T23:18:55.781Z,11.38
2023-05-21T23:21:44.853Z,13.05
2023-05-21T23:24:35.131Z,12.77
2023-05-21T23:27:24.014Z,11.77
2023-05-21T23:30:14.334Z,11.05
2023-05-21T23:33:03.274Z,11.18
2023-05-21T23:35:52.076Z,12.10
2023-05-21T23:38:40.919Z,10.77
2023-05-21T23:41:29.685Z,11.60
2023-05-21T23:44:20.270Z,11.82
2023-05-21T23:47:10.416Z,10.95
2023-05-21T23:49:59.122Z,11.15
2023-05-21T23:52:47.872Z,11.20
2023-05-21T23:55:37.139Z,11.60
2023-05-21T23:58:25.834Z,11.18
